Time;durP1;ratioP1;P1;durP2;ratioP2;P2;SDS_P1;SDS_P2;PMS_P1;PMS_P2;Temp;Humidity;BMP_temperature;BMP_pressure;BME280_temperature;BME280_humidity;BME280_pressure;Samples;Min_cycle;Max_cycle;Signal;HPM_P1;HPM_P2
2021/08/10 00:00:37;;;;;;;14.05;6.80;;;716.80;2048.00;;;;;;5093406;28;20047;-75
2021/08/10 00:03:02;;;;;;;13.73;6.45;;;716.80;2048.00;;;;;;5111411;28;20023;-78
2021/08/10 00:05:28;;;;;;;12.80;6.43;;;692.10;2048.00;;;;;;5111719;28;20051;-76
2021/08/10 00:07:55;;;;;;;13.10;6.30;;;691.90;2048.00;;;;;;5114740;28;20029;-77
2021/08/10 00:10:21;;;;;;;14.98;6.25;;;691.80;2073.60;;;;;;5115776;28;20011;-79
2021/08/10 00:12:47;;;;;;;7.72;5.95;;;692.10;2048.00;;;;;;5097585;28;20028;-79
2021/08/10 00:15:13;;;;;;;14.02;6.90;;;691.80;2073.60;;;;;;5115894;28;20077;-78
2021/08/10 00:17:39;;;;;;;9.90;6.70;;;691.90;2048.00;;;;;;5115725;28;20032;-77
2021/08/10 00:20:06;;;;;;;13.43;7.30;;;692.10;2048.00;;;;;;5115743;28;20358;-77
2021/08/10 00:22:31;;;;;;;13.60;7.10;;;692.10;2048.00;;;;;;5102023;27;20042;-79
2021/08/10 00:24:57;;;;;;;9.75;6.07;;;692.10;2048.00;;;;;;5136264;27;20028;-78
2021/08/10 00:27:23;;;;;;;15.02;6.55;;;691.90;2048.00;;;;;;5136186;27;20015;-78
2021/08/10 00:29:48;;;;;;;9.48;6.20;;;691.80;2022.40;;;;;;5136167;27;20476;-77
2021/08/10 00:32:14;;;;;;;9.85;5.22;;;691.80;2022.40;;;;;;5136112;27;20030;-77
2021/08/10 00:34:40;;;;;;;13.15;5.80;;;691.90;1996.80;;;;;;5136135;27;20092;-77
2021/08/10 00:37:07;;;;;;;11.73;6.45;;;692.10;1996.80;;;;;;5117682;27;20019;-77
2021/08/10 00:39:34;;;;;;;9.07;5.35;;;692.10;1996.80;;;;;;5117728;27;20035;-79
2021/08/10 00:42:00;;;;;;;9.27;6.20;;;691.90;1996.80;;;;;;5136108;27;20012;-77
2021/08/10 00:44:26;;;;;;;12.50;5.68;;;691.80;1996.80;;;;;;5136629;27;20550;-76
2021/08/10 00:46:52;;;;;;;8.95;5.90;;;691.80;1996.80;;;;;;5136318;27;20023;-78
2021/08/10 00:49:18;;;;;;;12.57;5.90;;;691.80;1996.80;;;;;;5135963;27;20043;-76
2021/08/10 00:51:46;;;;;;;11.13;6.13;;;691.70;2022.40;;;;;;5136151;27;20077;-79
2021/08/10 00:54:12;;;;;;;8.57;4.82;;;691.90;1971.20;;;;;;5133832;27;20022;-79
2021/08/10 00:56:40;;;;;;;10.32;6.38;;;691.80;1945.60;;;;;;5136146;27;20102;-78
2021/08/10 00:59:06;;;;;;;10.93;5.90;;;691.90;1945.60;;;;;;5135941;27;20127;-77
2021/08/10 01:01:32;;;;;;;12.95;5.82;;;692.00;1920.00;;;;;;5136183;27;20019;-78
2021/08/10 01:03:58;;;;;;;12.88;4.97;;;692.00;1945.60;;;;;;5117201;27;20032;-79
2021/08/10 01:07:04;;;;;;;10.05;5.57;;;691.90;1945.60;;;;;;5117590;27;20026;-78
2021/08/10 01:09:55;;;;;;;12.23;4.68;;;691.70;1945.60;;;;;;5117262;27;20019;-77
2021/08/10 01:12:36;;;;;;;10.32;5.63;;;691.80;1971.20;;;;;;5134302;27;20379;-76
2021/08/10 01:15:16;;;;;;;13.77;5.72;;;691.60;1971.20;;;;;;5134525;27;20019;-79
2021/08/10 01:17:58;;;;;;;11.55;5.53;;;691.60;1971.20;;;;;;5134568;27;20027;-81
2021/08/10 01:20:52;;;;;;;8.13;5.15;;;691.60;1971.20;;;;;;5136217;27;20033;-79
2021/08/10 01:23:21;;;;;;;10.35;5.70;;;691.60;1945.60;;;;;;5136170;27;20043;-80
2021/08/10 01:25:47;;;;;;;8.63;5.78;;;691.50;1945.60;;;;;;5090174;28;20035;-76
2021/08/10 01:28:24;;;;;;;8.18;5.47;;;691.50;1945.60;;;;;;5094928;28;20393;-76
2021/08/10 01:31:05;;;;;;;11.82;5.50;;;691.50;1971.20;;;;;;5094882;28;20496;-77
2021/08/10 01:33:39;;;;;;;8.40;5.53;;;691.40;1971.20;;;;;;5094786;28;20020;-79
2021/08/10 01:36:07;;;;;;;8.93;5.35;;;691.40;1971.20;;;;;;5076653;28;20055;-78
2021/08/10 01:38:35;;;;;;;9.15;5.00;;;691.40;1971.20;;;;;;5094952;28;20044;-78
2021/08/10 01:41:02;;;;;;;9.60;5.32;;;691.40;1971.20;;;;;;5095155;28;20020;-80
2021/08/10 01:43:30;;;;;;;16.20;6.20;;;691.30;1971.20;;;;;;5076826;28;20063;-82
2021/08/10 01:45:57;;;;;;;10.55;5.72;;;691.40;1971.20;;;;;;5094757;28;20056;-78
2021/08/10 01:48:23;;;;;;;10.32;5.10;;;691.30;1971.20;;;;;;5094691;28;20027;-78
2021/08/10 01:50:49;;;;;;;12.90;6.05;;;691.20;1996.80;;;;;;5076215;28;20036;-78
2021/08/10 01:53:16;;;;;;;15.32;5.60;;;691.20;1996.80;;;;;;5094579;28;20024;-81
2021/08/10 01:55:44;;;;;;;7.93;5.28;;;691.20;1996.80;;;;;;5076590;28;20028;-80
2021/08/10 01:58:10;;;;;;;11.55;6.07;;;691.20;1971.20;;;;;;5076207;28;20111;-78
2021/08/10 02:00:37;;;;;;;9.30;5.97;;;666.50;1996.80;;;;;;5094381;28;20095;-78
2021/08/10 02:03:11;;;;;;;11.35;6.15;;;666.30;1996.80;;;;;;5076242;28;20119;-77
2021/08/10 02:05:38;;;;;;;7.07;5.57;;;666.20;2022.40;;;;;;5094305;28;20055;-79
2021/08/10 02:08:04;;;;;;;8.77;5.95;;;666.40;2022.40;;;;;;5094087;28;20020;-79
2021/08/10 02:10:30;;;;;;;16.33;5.72;;;666.30;1996.80;;;;;;5094343;28;20020;-77
2021/08/10 02:13:00;;;;;;;11.80;5.85;;;666.50;1996.80;;;;;;5094321;28;20034;-79
2021/08/10 02:15:25;;;;;;;12.77;6.45;;;666.50;1996.80;;;;;;5094060;28;20530;-78
2021/08/10 02:17:51;;;;;;;10.85;6.00;;;666.30;2022.40;;;;;;5093940;28;20032;-79
2021/08/10 02:20:17;;;;;;;9.70;5.80;;;666.50;1996.80;;;;;;5093971;28;20028;-78
2021/08/10 02:22:47;;;;;;;8.27;5.55;;;691.20;1996.80;;;;;;5099985;28;20492;-82
2021/08/10 02:25:19;;;;;;;11.00;6.00;;;666.50;1996.80;;;;;;5117020;27;20495;-76
2021/08/10 02:27:53;;;;;;;8.80;5.53;;;666.30;2022.40;;;;;;5134802;27;20019;-75
2021/08/10 02:30:25;;;;;;;13.20;6.40;;;666.50;1996.80;;;;;;5134174;27;20034;-76
2021/08/10 02:32:52;;;;;;;12.00;6.18;;;666.50;2022.40;;;;;;5134776;27;20412;-80
2021/08/10 02:35:24;;;;;;;11.00;5.78;;;666.50;2022.40;;;;;;5116241;27;20043;-78
2021/08/10 02:37:52;;;;;;;12.13;7.07;;;666.50;2048.00;;;;;;5134442;27;20094;-78
2021/08/10 02:40:19;;;;;;;15.63;6.45;;;666.30;2073.60;;;;;;5134683;27;20024;-78
2021/08/10 02:42:49;;;;;;;11.15;6.10;;;666.30;2073.60;;;;;;5134443;27;20020;-75
2021/08/10 02:45:15;;;;;;;12.55;6.30;;;666.30;2073.60;;;;;;5134238;27;20050;-78
2021/08/10 02:47:56;;;;;;;16.13;8.07;;;666.00;2124.80;;;;;;5134342;27;20468;-76
2021/08/10 02:50:24;;;;;;;12.43;6.97;;;666.00;2124.80;;;;;;5134387;27;20029;-81
2021/08/10 02:52:50;;;;;;;11.77;6.47;;;665.90;2150.40;;;;;;5134497;27;20026;-81
2021/08/10 02:55:19;;;;;;;11.20;6.25;;;665.90;2150.40;;;;;;5134596;27;20419;-79
2021/08/10 02:58:00;;;;;;;11.75;6.90;;;665.70;2150.40;;;;;;5134446;27;20098;-76
2021/08/10 03:00:30;;;;;;;11.25;6.47;;;665.60;2176.00;;;;;;5134500;27;20495;-77
2021/08/10 03:03:09;;;;;;;9.30;6.22;;;665.60;2176.00;;;;;;5134483;27;20020;-80
2021/08/10 03:05:36;;;;;;;12.40;6.80;;;640.90;2150.40;;;;;;5134474;27;20102;-81
2021/08/10 03:08:03;;;;;;;12.68;6.68;;;665.70;2150.40;;;;;;5134424;27;20027;-76
2021/08/10 03:10:34;;;;;;;11.30;6.50;;;665.60;2150.40;;;;;;5134005;27;20027;-76
2021/08/10 03:13:05;;;;;;;20.92;6.20;;;665.70;2150.40;;;;;;5133946;27;20023;-77
2021/08/10 03:15:33;;;;;;;12.68;5.60;;;665.70;2150.40;;;;;;5133919;27;20027;-76
2021/08/10 03:18:04;;;;;;;11.63;6.75;;;665.70;2150.40;;;;;;5133970;27;20038;-76
2021/08/10 03:20:32;;;;;;;11.50;6.85;;;665.70;2150.40;;;;;;5115947;28;20031;-78
2021/08/10 03:22:59;;;;;;;8.30;5.95;;;665.70;2150.40;;;;;;5133830;28;20043;-79
2021/08/10 03:25:26;;;;;;;11.75;5.50;;;665.80;2124.80;;;;;;5129204;28;20051;-75
2021/08/10 03:27:54;;;;;;;8.27;5.28;;;665.90;2124.80;;;;;;5113405;28;20077;-77
2021/08/10 03:30:20;;;;;;;11.70;5.50;;;665.80;2150.40;;;;;;5113520;28;20024;-78
2021/08/10 03:32:49;;;;;;;11.35;5.72;;;665.70;2150.40;;;;;;5113286;28;20028;-82
2021/08/10 03:35:15;;;;;;;9.93;5.70;;;665.70;2150.40;;;;;;5113589;28;20012;-82
2021/08/10 03:37:42;;;;;;;7.38;5.53;;;665.60;2150.40;;;;;;5113286;28;20495;-79
2021/08/10 03:40:08;;;;;;;10.52;5.95;;;640.90;2124.80;;;;;;5113439;28;20019;-78
2021/08/10 03:42:35;;;;;;;9.73;5.97;;;640.90;2150.40;;;;;;5098651;28;20038;-75
2021/08/10 03:45:01;;;;;;;11.55;6.25;;;640.70;2150.40;;;;;;5117363;28;20112;-78
2021/08/10 03:47:27;;;;;;;8.55;5.45;;;640.70;2176.00;;;;;;5117472;28;20028;-78
2021/08/10 03:49:54;;;;;;;15.02;6.18;;;640.60;2176.00;;;;;;5116378;28;20026;-78
2021/08/10 03:52:20;;;;;;;8.38;6.15;;;640.60;2201.60;;;;;;5117523;28;20023;-83
2021/08/10 03:54:46;;;;;;;8.85;6.32;;;640.70;2176.00;;;;;;5117586;28;20020;-76
2021/08/10 03:57:17;;;;;;;7.30;5.05;;;640.60;2176.00;;;;;;5099368;28;20019;-81
2021/08/10 03:59:46;;;;;;;8.75;5.63;;;640.70;2150.40;;;;;;5117545;28;20028;-84
2021/08/10 04:02:16;;;;;;;12.25;5.78;;;640.50;2176.00;;;;;;5117398;28;20020;-82
2021/08/10 04:04:48;;;;;;;14.20;5.88;;;640.70;2150.40;;;;;;5117286;28;20484;-83
2021/08/10 04:07:15;;;;;;;14.07;6.00;;;640.80;2150.40;;;;;;5117379;28;20103;-82
2021/08/10 04:09:41;;;;;;;7.55;5.43;;;640.70;2124.80;;;;;;5117149;28;20012;-83
2021/08/10 04:12:09;;;;;;;11.40;5.75;;;640.80;2124.80;;;;;;5117448;28;20034;-76
2021/08/10 04:14:36;;;;;;;16.60;5.82;;;640.70;2124.80;;;;;;5111587;27;20385;-78
2021/08/10 04:17:04;;;;;;;10.20;5.60;;;640.50;2150.40;;;;;;5137846;27;20042;-82
2021/08/10 04:19:34;;;;;;;8.90;5.57;;;640.40;2176.00;;;;;;5137494;27;20042;-81
2021/08/10 04:22:00;;;;;;;9.90;6.43;;;640.40;2150.40;;;;;;5137484;27;20046;-77
2021/08/10 04:24:26;;;;;;;10.23;5.45;;;640.40;2176.00;;;;;;5137489;27;20054;-78
2021/08/10 04:26:52;;;;;;;10.10;5.57;;;640.40;2150.40;;;;;;5153896;27;20018;-77
2021/08/10 04:29:18;;;;;;;14.13;6.43;;;640.60;2150.40;;;;;;5157980;27;20080;-76
2021/08/10 04:31:44;;;;;;;17.17;6.13;;;640.50;2150.40;;;;;;5157802;27;20020;-77
2021/08/10 04:34:10;;;;;;;8.85;6.53;;;640.60;2150.40;;;;;;5157313;27;20030;-77
2021/08/10 04:36:35;;;;;;;9.98;5.93;;;640.70;2150.40;;;;;;5157686;27;20030;-77
2021/08/10 04:39:01;;;;;;;12.45;6.28;;;640.70;2124.80;;;;;;5157413;27;20554;-77
2021/08/10 04:41:27;;;;;;;12.75;7.18;;;640.70;2150.40;;;;;;5157851;27;20491;-81
2021/08/10 04:43:54;;;;;;;13.40;7.57;;;640.70;2150.40;;;;;;5138942;27;20035;-83
2021/08/10 04:46:25;;;;;;;13.63;7.75;;;640.70;2150.40;;;;;;5158155;27;20018;-76
2021/08/10 04:48:51;;;;;;;10.82;7.43;;;640.70;2150.40;;;;;;5157649;27;20471;-76
2021/08/10 04:51:17;;;;;;;13.13;7.25;;;640.70;2124.80;;;;;;5157405;27;20022;-77
2021/08/10 04:53:43;;;;;;;12.98;7.15;;;640.70;2150.40;;;;;;5155879;27;20027;-78
2021/08/10 04:56:09;;;;;;;12.25;7.22;;;640.10;2150.40;;;;;;5157223;27;20475;-75
2021/08/10 04:58:36;;;;;;;12.07;7.40;;;640.70;2150.40;;;;;;5157441;27;20031;-75
2021/08/10 05:01:02;;;;;;;49.70;11.23;;;640.60;2150.40;;;;;;5157366;27;20060;-80
2021/08/10 05:03:29;;;;;;;9.52;7.40;;;640.70;2150.40;;;;;;5138731;27;20412;-81
2021/08/10 05:05:55;;;;;;;11.50;7.28;;;640.70;2150.40;;;;;;5157413;27;20039;-81
2021/08/10 05:08:21;;;;;;;10.88;6.90;;;640.80;2150.40;;;;;;5157002;27;20019;-78
2021/08/10 05:10:47;;;;;;;10.73;6.95;;;640.90;2124.80;;;;;;5157410;27;20114;-82
2021/08/10 05:13:14;;;;;;;9.52;6.65;;;640.90;2150.40;;;;;;5138420;27;20030;-82
2021/08/10 05:15:39;;;;;;;13.25;7.80;;;665.60;2150.40;;;;;;5157522;27;20030;-75
2021/08/10 05:18:05;;;;;;;19.92;12.30;;;665.70;2150.40;;;;;;5139026;27;20399;-76
2021/08/10 05:20:31;;;;;;;24.90;11.63;;;665.70;2150.40;;;;;;5157177;27;20035;-80
2021/08/10 05:22:57;;;;;;;15.82;11.52;;;665.70;2150.40;;;;;;5156970;27;20073;-84
2021/08/10 05:25:22;;;;;;;18.83;13.27;;;665.70;2150.40;;;;;;5157290;27;20045;-78
2021/08/10 05:27:48;;;;;;;17.92;11.30;;;665.80;2150.40;;;;;;5156957;27;20102;-77
2021/08/10 05:30:14;;;;;;;22.63;15.27;;;665.80;2150.40;;;;;;5156964;27;20080;-80
2021/08/10 05:32:41;;;;;;;13.88;8.30;;;666.00;2150.40;;;;;;5156866;27;20090;-75
2021/08/10 05:35:07;;;;;;;13.05;7.55;;;666.00;2150.40;;;;;;5156685;27;20076;-79
2021/08/10 05:37:33;;;;;;;11.40;7.15;;;666.30;2150.40;;;;;;5156525;27;20051;-80
2021/08/10 05:39:59;;;;;;;11.88;7.82;;;666.00;2150.40;;;;;;5156836;27;20035;-75
2021/08/10 05:42:25;;;;;;;13.15;8.18;;;666.00;2150.40;;;;;;5156631;27;20493;-76
2021/08/10 05:44:50;;;;;;;13.45;8.77;;;666.00;2176.00;;;;;;5155845;27;20379;-77
2021/08/10 05:47:16;;;;;;;21.55;9.73;;;666.00;2176.00;;;;;;5155776;27;20433;-79
2021/08/10 05:49:42;;;;;;;17.88;9.32;;;666.00;2176.00;;;;;;5156276;27;20030;-79
2021/08/10 05:52:08;;;;;;;46.80;12.93;;;665.90;2201.60;;;;;;5156541;27;20142;-76
2021/08/10 05:54:35;;;;;;;20.38;9.55;;;665.80;2227.20;;;;;;5156082;27;20022;-81
2021/08/10 05:57:01;;;;;;;23.83;9.95;;;665.80;2227.20;;;;;;5156405;27;20023;-80
2021/08/10 05:59:27;;;;;;;13.32;7.97;;;665.80;2227.20;;;;;;5156274;27;20118;-87
2021/08/10 06:01:52;;;;;;;47.95;10.95;;;666.00;2227.20;;;;;;5156548;27;20474;-85
2021/08/10 06:04:18;;;;;;;13.88;9.02;;;666.20;2201.60;;;;;;5155231;27;20109;-83
2021/08/10 06:06:44;;;;;;;16.08;11.50;;;666.20;2201.60;;;;;;5155897;27;20019;-80
2021/08/10 06:09:09;;;;;;;17.50;10.82;;;666.40;2176.00;;;;;;5155617;27;20382;-77
2021/08/10 06:11:36;;;;;;;26.00;12.07;;;666.40;2176.00;;;;;;5155946;27;20022;-77
2021/08/10 06:14:03;;;;;;;16.35;10.25;;;666.50;2176.00;;;;;;5152465;27;20433;-78
2021/08/10 06:16:29;;;;;;;18.48;10.00;;;666.50;2150.40;;;;;;5155259;27;20020;-77
2021/08/10 06:18:55;;;;;;;15.70;9.73;;;666.50;2176.00;;;;;;5152482;27;20049;-79
2021/08/10 06:21:20;;;;;;;14.10;9.38;;;666.50;2176.00;;;;;;5155555;27;20456;-76
2021/08/10 06:23:47;;;;;;;16.90;10.65;;;691.20;2150.40;;;;;;5155008;27;20039;-78
2021/08/10 06:26:12;;;;;;;15.15;9.85;;;691.30;2124.80;;;;;;5154914;27;20556;-79
2021/08/10 06:28:39;;;;;;;20.08;9.50;;;691.40;2124.80;;;;;;5155352;27;20041;-78
2021/08/10 06:31:05;;;;;;;13.30;9.20;;;691.60;2124.80;;;;;;5155094;27;20034;-80
2021/08/10 06:33:32;;;;;;;13.77;8.75;;;691.60;2099.20;;;;;;5155027;27;20022;-76
2021/08/10 06:35:58;;;;;;;17.95;9.30;;;691.70;2099.20;;;;;;5154583;27;20026;-76
2021/08/10 06:38:23;;;;;;;16.25;8.48;;;691.80;2099.20;;;;;;5136071;27;20049;-76
2021/08/10 06:40:49;;;;;;;15.27;8.82;;;691.90;2073.60;;;;;;5154498;27;20037;-75
2021/08/10 06:43:16;;;;;;;19.23;8.50;;;691.90;2073.60;;;;;;5154510;27;20019;-75
2021/08/10 06:45:43;;;;;;;12.30;8.52;;;692.00;2073.60;;;;;;5154666;27;20113;-76
2021/08/10 06:48:08;;;;;;;16.20;9.00;;;692.00;2073.60;;;;;;5154793;27;20019;-76
2021/08/10 06:50:34;;;;;;;11.60;7.78;;;716.80;2099.20;;;;;;5154451;27;20025;-76
2021/08/10 06:53:00;;;;;;;13.98;7.88;;;716.90;2099.20;;;;;;5154547;27;20532;-75
2021/08/10 06:55:26;;;;;;;15.90;7.95;;;716.90;2073.60;;;;;;5154439;27;20019;-76
2021/08/10 06:57:52;;;;;;;12.18;7.75;;;717.00;2073.60;;;;;;5154576;27;20068;-77
2021/08/10 07:00:18;;;;;;;15.30;8.27;;;717.10;2073.60;;;;;;5154358;27;20037;-77
2021/08/10 07:02:44;;;;;;;13.18;8.13;;;717.20;2048.00;;;;;;5151980;27;20019;-77
2021/08/10 07:05:10;;;;;;;11.70;7.47;;;717.20;2048.00;;;;;;5153007;27;20033;-76
2021/08/10 07:07:36;;;;;;;8.30;6.60;;;717.40;2022.40;;;;;;5152857;27;20114;-77
2021/08/10 07:10:03;;;;;;;13.20;8.05;;;717.70;2022.40;;;;;;5152719;27;20042;-77
2021/08/10 07:12:29;;;;;;;10.43;6.95;;;717.50;2022.40;;;;;;5153097;27;20019;-76
2021/08/10 07:14:55;;;;;;;14.07;7.80;;;742.40;2073.60;;;;;;5152755;27;20026;-75
2021/08/10 07:17:20;;;;;;;10.43;7.30;;;742.50;2022.40;;;;;;5152688;27;20043;-77
2021/08/10 07:19:46;;;;;;;8.98;5.82;;;742.60;2022.40;;;;;;5152947;27;20109;-75
2021/08/10 07:22:12;;;;;;;8.85;6.68;;;742.70;2022.40;;;;;;5152680;27;20030;-75
2021/08/10 07:24:38;;;;;;;11.20;6.85;;;742.90;2022.40;;;;;;5150414;27;20038;-76
2021/08/10 07:27:04;;;;;;;10.00;5.97;;;742.90;2022.40;;;;;;5153650;27;20018;-75
2021/08/10 07:29:30;;;;;;;11.48;6.80;;;742.90;1971.20;;;;;;5153736;27;20023;-76
2021/08/10 07:31:55;;;;;;;9.27;5.95;;;743.00;1996.80;;;;;;5134640;27;20073;-76
2021/08/10 07:34:21;;;;;;;8.32;5.70;;;743.10;1996.80;;;;;;5153763;27;20022;-76
2021/08/10 07:36:50;;;;;;;6.50;5.35;;;743.20;1945.60;;;;;;5153693;27;20094;-76
2021/08/10 07:39:16;;;;;;;8.20;5.75;;;743.20;1945.60;;;;;;5153328;27;20034;-76
2021/08/10 07:41:42;;;;;;;6.57;5.25;;;768.00;1945.60;;;;;;5153422;27;20459;-76
2021/08/10 07:44:08;;;;;;;7.13;5.07;;;768.20;1868.80;;;;;;5153456;27;20033;-75
2021/08/10 07:46:34;;;;;;;9.90;5.32;;;768.30;1843.20;;;;;;5153279;27;20035;-74
2021/08/10 07:49:00;;;;;;;9.18;5.40;;;768.40;1894.40;;;;;;5153420;27;20023;-76
2021/08/10 07:51:26;;;;;;;8.63;6.07;;;768.40;1843.20;;;;;;5153196;27;20079;-76
2021/08/10 07:53:52;;;;;;;10.10;5.43;;;768.40;1817.60;;;;;;5150987;27;20022;-75
2021/08/10 07:56:18;;;;;;;7.15;5.45;;;768.50;1868.80;;;;;;5133825;27;20429;-77
2021/08/10 07:58:45;;;;;;;7.68;5.13;;;768.80;1817.60;;;;;;5152600;27;20022;-75
2021/08/10 08:01:11;;;;;;;8.48;4.60;;;768.80;1817.60;;;;;;5152618;27;20019;-76
2021/08/10 08:03:43;;;;;;;8.55;5.47;;;768.50;1817.60;;;;;;5150594;27;20026;-74
2021/08/10 08:06:09;;;;;;;7.28;4.55;;;768.90;1792.00;;;;;;5151189;27;20479;-74
2021/08/10 08:08:38;;;;;;;8.32;5.38;;;793.60;1792.00;;;;;;5152822;27;20069;-74
2021/08/10 08:11:04;;;;;;;7.70;5.00;;;793.70;1766.40;;;;;;5151187;27;20019;-74
2021/08/10 08:13:30;;;;;;;10.02;4.78;;;793.70;1792.00;;;;;;5153511;27;20023;-74
2021/08/10 08:15:56;;;;;;;7.80;4.50;;;793.90;1766.40;;;;;;5153982;27;20035;-74
2021/08/10 08:18:23;;;;;;;9.05;5.03;;;794.00;1766.40;;;;;;5154002;27;20027;-74
2021/08/10 08:20:49;;;;;;;7.40;4.68;;;794.00;1715.20;;;;;;5154036;27;20050;-74
2021/08/10 08:23:16;;;;;;;6.65;4.82;;;794.20;1715.20;;;;;;5153966;27;20046;-74
2021/08/10 08:25:42;;;;;;;7.40;4.22;;;794.20;1715.20;;;;;;5153664;27;20026;-73
2021/08/10 08:28:09;;;;;;;7.60;4.97;;;794.20;1715.20;;;;;;5155149;27;20023;-74
2021/08/10 08:30:40;;;;;;;7.30;4.60;;;794.10;1715.20;;;;;;5157273;27;20030;-77
2021/08/10 08:33:10;;;;;;;7.35;4.53;;;794.20;1715.20;;;;;;5157142;27;20375;-77
2021/08/10 08:35:38;;;;;;;6.80;4.55;;;794.20;1715.20;;;;;;5157078;27;20511;-75
2021/08/10 08:38:05;;;;;;;8.63;5.00;;;794.20;1689.60;;;;;;5156624;27;20396;-76
2021/08/10 08:40:31;;;;;;;9.07;4.82;;;794.20;1689.60;;;;;;5137144;27;20372;-76
2021/08/10 08:42:57;;;;;;;8.02;4.65;;;794.40;1664.00;;;;;;5156567;27;20030;-77
2021/08/10 08:45:23;;;;;;;10.45;4.50;;;794.40;1689.60;;;;;;5156297;27;20098;-77
2021/08/10 08:47:53;;;;;;;9.80;5.13;;;794.50;1715.20;;;;;;5156026;27;20568;-75
2021/08/10 08:50:20;;;;;;;7.22;4.78;;;794.50;1689.60;;;;;;5156977;27;20091;-75
2021/08/10 08:52:51;;;;;;;13.88;5.18;;;819.20;1638.40;;;;;;5156878;27;20018;-74
2021/08/10 08:55:20;;;;;;;9.48;4.40;;;794.50;1689.60;;;;;;5156307;27;20015;-76
2021/08/10 08:57:45;;;;;;;7.55;4.35;;;794.50;1638.40;;;;;;5157258;27;20114;-74
2021/08/10 09:00:16;;;;;;;7.22;3.95;;;794.50;1689.60;;;;;;5157113;27;20528;-77
2021/08/10 09:02:44;;;;;;;8.95;3.90;;;819.20;1664.00;;;;;;5156945;27;20010;-76
2021/08/10 09:05:14;;;;;;;5.63;4.30;;;819.20;1664.00;;;;;;5156916;27;20446;-76
2021/08/10 09:07:41;;;;;;;5.45;4.25;;;819.20;1638.40;;;;;;5156871;27;20071;-79
2021/08/10 09:10:08;;;;;;;7.07;4.18;;;794.50;1612.80;;;;;;5156774;27;20028;-75
2021/08/10 09:12:45;;;;;;;5.60;4.15;;;794.50;1587.20;;;;;;5156692;27;20053;-74
2021/08/10 09:15:27;;;;;;;5.57;3.80;;;794.50;1587.20;;;;;;5156577;27;20026;-76
2021/08/10 09:17:54;;;;;;;8.23;4.18;;;794.50;1612.80;;;;;;5156622;27;20026;-74
2021/08/10 09:20:21;;;;;;;6.03;3.60;;;819.30;1612.80;;;;;;5156242;27;20031;-74
2021/08/10 09:22:51;;;;;;;11.18;4.10;;;819.30;1587.20;;;;;;5156564;27;20095;-75
2021/08/10 09:25:17;;;;;;;5.82;4.18;;;819.30;1536.00;;;;;;5155040;27;20102;-74
2021/08/10 09:27:43;;;;;;;7.43;3.50;;;819.30;1561.60;;;;;;5156720;27;20042;-75
2021/08/10 09:30:18;;;;;;;7.43;4.13;;;819.60;1587.20;;;;;;5156367;27;20166;-74
2021/08/10 09:32:56;;;;;;;10.52;4.53;;;819.70;1587.20;;;;;;5156337;27;20011;-75
2021/08/10 09:35:24;;;;;;;9.95;4.68;;;819.80;1536.00;;;;;;5156306;27;20023;-74
2021/08/10 09:38:04;;;;;;;9.40;4.32;;;819.90;1510.40;;;;;;5156180;27;20130;-76
2021/08/10 09:40:42;;;;;;;9.68;4.10;;;820.00;1510.40;;;;;;5155617;27;20040;-75
2021/08/10 09:43:26;;;;;;;8.10;3.50;;;820.10;1561.60;;;;;;5137087;27;20030;-75
2021/08/10 09:46:23;;;;;;;5.65;4.57;;;820.10;1510.40;;;;;;5153835;27;20467;-74
2021/08/10 09:48:49;;;;;;;8.68;4.18;;;844.90;1510.40;;;;;;5041053;28;20069;-77
2021/08/10 09:51:23;;;;;;;5.20;3.72;;;845.00;1510.40;;;;;;5039609;28;20439;-76
2021/08/10 09:54:01;;;;;;;9.52;4.05;;;845.10;1459.20;;;;;;5040343;28;20025;-76
2021/08/10 09:56:53;;;;;;;7.70;3.88;;;845.10;1459.20;;;;;;5042208;28;20029;-77
2021/08/10 09:59:23;;;;;;;6.03;3.80;;;845.00;1510.40;;;;;;5041439;28;20045;-75
2021/08/10 10:01:54;;;;;;;7.53;3.92;;;845.30;1484.80;;;;;;5028681;28;20035;-75
2021/08/10 10:04:24;;;;;;;8.70;4.03;;;845.50;1433.60;;;;;;5036697;28;20116;-75
2021/08/10 10:06:52;;;;;;;6.65;4.28;;;845.50;1408.00;;;;;;5039359;28;20108;-76
2021/08/10 10:09:19;;;;;;;5.78;3.75;;;845.60;1484.80;;;;;;5040335;28;20025;-77
2021/08/10 10:11:48;;;;;;;14.65;4.60;;;870.50;1433.60;;;;;;5040864;28;20041;-78
2021/08/10 10:14:14;;;;;;;6.90;3.83;;;870.50;1433.60;;;;;;5048268;28;20072;-76
2021/08/10 10:16:45;;;;;;;8.10;4.63;;;870.50;1408.00;;;;;;5051676;28;20516;-77
2021/08/10 10:19:15;;;;;;;7.53;4.22;;;870.60;1382.40;;;;;;5051465;28;20938;-75
2021/08/10 10:22:14;;;;;;;7.88;5.13;;;870.70;1408.00;;;;;;5051613;28;20029;-76
2021/08/10 10:24:57;;;;;;;6.97;4.78;;;870.70;1408.00;;;;;;5102568;27;20051;-76
2021/08/10 10:27:24;;;;;;;6.53;3.90;;;870.90;1408.00;;;;;;5134611;27;20098;-77
2021/08/10 10:29:54;;;;;;;7.30;3.78;;;871.00;1331.20;;;;;;5141676;27;20022;-74
2021/08/10 10:32:21;;;;;;;6.25;3.53;;;871.10;1356.80;;;;;;5153584;27;20015;-74
2021/08/10 10:34:48;;;;;;;7.00;3.50;;;870.90;1382.40;;;;;;5154782;27;20029;-77
2021/08/10 10:37:22;;;;;;;6.68;4.22;;;871.00;1382.40;;;;;;5155257;27;20043;-78
2021/08/10 10:39:51;;;;;;;16.50;3.72;;;871.00;1331.20;;;;;;5155168;27;20041;-76
2021/08/10 10:42:17;;;;;;;10.60;4.60;;;870.50;1408.00;;;;;;5154331;27;20015;-75
2021/08/10 10:44:44;;;;;;;7.05;3.75;;;871.10;1382.40;;;;;;5154402;27;20476;-74
2021/08/10 10:47:25;;;;;;;9.68;3.70;;;871.30;1331.20;;;;;;5153903;27;20030;-73
2021/08/10 10:49:57;;;;;;;7.60;3.50;;;896.00;1254.40;;;;;;5154415;27;20047;-73
2021/08/10 10:52:28;;;;;;;7.20;3.50;;;896.10;1254.40;;;;;;5154507;27;20023;-73
2021/08/10 10:54:56;;;;;;;6.28;3.83;;;896.20;1254.40;;;;;;5154657;27;20015;-74
2021/08/10 10:59:56;;;;;;;5.45;3.65;;;896.40;1331.20;;;;;;5143237;27;20096;-74
2021/08/10 11:02:27;;;;;;;6.85;4.05;;;896.60;1254.40;;;;;;5153045;27;20034;-74
2021/08/10 11:05:17;;;;;;;5.68;3.67;;;896.70;1254.40;;;;;;5154720;27;20383;-73
2021/08/10 11:07:44;;;;;;;7.70;3.55;;;896.80;1280.00;;;;;;5154810;27;20027;-74
2021/08/10 11:10:30;;;;;;;6.75;3.45;;;896.80;1280.00;;;;;;5154784;27;20087;-75
2021/08/10 11:12:57;;;;;;;8.38;4.00;;;896.80;1228.80;;;;;;5140013;27;20031;-74
2021/08/10 11:15:44;;;;;;;5.72;3.03;;;896.90;1254.40;;;;;;5153924;27;20075;-72
2021/08/10 11:18:10;;;;;;;6.50;4.18;;;921.70;1305.60;;;;;;5133938;27;20095;-72
2021/08/10 11:21:02;;;;;;;5.45;3.40;;;921.80;1280.00;;;;;;5153861;27;20030;-72
2021/08/10 11:23:53;;;;;;;8.20;3.47;;;921.80;1280.00;;;;;;5019678;28;20045;-73
2021/08/10 11:26:19;;;;;;;5.30;3.42;;;921.90;1228.80;;;;;;5028366;28;20037;-71
2021/08/10 11:28:50;;;;;;;7.55;3.92;;;921.90;1228.80;;;;;;5030815;28;20088;-72
2021/08/10 11:31:41;;;;;;;5.40;3.58;;;921.90;1254.40;;;;;;5030918;28;20494;-73
2021/08/10 11:34:33;;;;;;;6.55;3.63;;;921.90;1305.60;;;;;;5030647;28;20034;-74
2021/08/10 11:37:25;;;;;;;7.28;3.33;;;922.00;1254.40;;;;;;5013891;28;20025;-74
2021/08/10 11:40:12;;;;;;;7.72;3.50;;;922.30;1228.80;;;;;;5030346;28;20026;-74
2021/08/10 11:42:39;;;;;;;5.72;3.35;;;922.40;1254.40;;;;;;5028480;28;20033;-75
2021/08/10 11:45:06;;;;;;;10.38;3.20;;;922.30;1203.20;;;;;;5029803;28;20913;-75
2021/08/10 11:47:31;;;;;;;7.53;3.50;;;922.10;1228.80;;;;;;5029731;28;20518;-75
2021/08/10 11:49:57;;;;;;;5.18;3.53;;;922.30;1177.60;;;;;;5029864;28;20064;-73
2021/08/10 11:52:39;;;;;;;5.18;3.38;;;922.40;1203.20;;;;;;5029934;28;20033;-74
2021/08/10 11:55:05;;;;;;;4.47;2.92;;;922.50;1152.00;;;;;;5030431;28;20068;-74
2021/08/10 11:57:30;;;;;;;5.07;3.15;;;947.20;1126.40;;;;;;5029573;28;20515;-74
2021/08/10 12:00:17;;;;;;;5.95;3.10;;;922.50;1126.40;;;;;;5052778;28;20054;-74
2021/08/10 12:02:44;;;;;;;5.15;3.30;;;947.30;1152.00;;;;;;5121839;27;20043;-74
2021/08/10 12:05:11;;;;;;;9.18;2.78;;;947.20;1075.20;;;;;;5128724;27;20023;-74
2021/08/10 12:07:50;;;;;;;4.72;3.10;;;947.30;1075.20;;;;;;5137041;27;20376;-75
2021/08/10 12:10:37;;;;;;;5.18;3.20;;;947.20;1075.20;;;;;;5137248;27;20059;-74
2021/08/10 12:13:22;;;;;;;5.75;2.92;;;947.30;1075.20;;;;;;5137134;27;20015;-74
2021/08/10 12:15:49;;;;;;;4.68;2.72;;;947.20;1049.60;;;;;;5136724;27;20385;-75
2021/08/10 12:18:18;;;;;;;5.68;2.75;;;947.30;1024.00;;;;;;5136987;27;20110;-75
2021/08/10 12:20:58;;;;;;;5.97;3.03;;;947.30;1049.60;;;;;;5129508;27;20027;-78
2021/08/10 12:23:25;;;;;;;4.82;3.22;;;947.70;972.80;;;;;;5136241;27;20473;-76
2021/08/10 12:25:52;;;;;;;4.60;2.78;;;972.90;1024.00;;;;;;5136397;27;20499;-76